Orion II — 9HUT9 — position and weather

sailwx.info

Track history (hours):
 
Tides and Currents Weather Stations Pressure Air Temp Water Temp Dewpoint Dewpoint Depression Visibility Wind Speed Wind Dir Waves Ship Positions

Orion II

Last reported at 2019-Jul-20 01:56 UTC. Time now 2019-Jul-20 13:30 UTC.
Position N 50°01' W 004°27'.

Length 88 m; draft 4.2 m.

Type: Passenger vessel. MMSI: 249556000.

Date/timePositionNaut miles runAvg speedWind from/ knotsBaromVisibWave heightAir tempDewpointWater temp
2019-Jul-20 01:56N 50°01' W 004°27'613.0
2019-Jul-20 01:29N 50°02' W 004°18'612.7
2019-Jul-20 01:00N 50°04' W 004°09'612.8
2019-Jul-20 00:30N 50°05' W 003°59'612.9
2019-Jul-20 00:00N 50°07' W 003°50'612.2
2019-Jul-19 23:30N 50°09' W 003°40'611.6
2019-Jul-19 23:00N 50°10' W 003°32'611.7
2019-Jul-19 22:30N 50°12' W 003°23'611.4
2019-Jul-19 22:00N 50°15' W 003°15'611.2
2019-Jul-19 21:30N 50°17' W 003°07'510.8
2019-Jul-19 21:00N 50°18' W 002°59'510.7
2019-Jul-19 20:30N 50°20' W 002°51'510.9
2019-Jul-19 20:00N 50°22' W 002°43'611.2
2019-Jul-19 19:30N 50°24' W 002°35'611.3
2019-Jul-19 19:00N 50°26' W 002°26'1211.5
2019-Jul-19 17:58N 50°30' W 002°09'612.5
2019-Jul-19 17:30N 50°32' W 002°01'611.6
2019-Jul-19 17:00N 50°36' W 001°54'5 9.3
2019-Jul-19 16:30N 50°41' W 001°57'2 4.5
2019-Jul-19 16:00N 50°42' W 001°59'0 0.0
2019-Jul-19 15:30N 50°42' W 001°59'0 0.0
2019-Jul-19 15:00N 50°42' W 001°59'0 0.0
2019-Jul-19 14:30N 50°42' W 001°59'0 0.0
2019-Jul-19 14:00N 50°42' W 001°59'0 0.0
2019-Jul-19 13:27N 50°42' W 001°59'0 0.0
2019-Jul-19 13:01N 50°42' W 001°59'0 0.0
2019-Jul-19 12:30N 50°42' W 001°59'0 0.0
2019-Jul-19 12:00N 50°42' W 001°59'0 0.0
2019-Jul-19 11:30N 50°42' W 001°59'0 0.0
2019-Jul-19 11:00N 50°42' W 001°59'0 0.0
2019-Jul-19 10:30N 50°42' W 001°59'0 0.0
2019-Jul-19 10:01N 50°42' W 001°59'0 0.0
2019-Jul-19 09:30N 50°42' W 001°59'0 0.0
2019-Jul-19 09:00N 50°42' W 001°59'0 0.0
2019-Jul-19 08:30N 50°42' W 001°59'0 0.0
2019-Jul-19 08:00N 50°42' W 001°59'0 0.0
2019-Jul-19 07:31N 50°42' W 001°59'0 0.0
2019-Jul-19 07:00N 50°42' W 001°59'0 0.0
2019-Jul-19 06:30N 50°42' W 001°59'0 0.2
2019-Jul-19 06:01N 50°42' W 001°59'4 7.5
2019-Jul-19 05:31N 50°39' W 001°55'3 6.5
2019-Jul-19 05:00N 50°36' W 001°54'5 8.5
2019-Jul-19 04:28N 50°32' W 001°56'610.0
2019-Jul-19 03:52N 50°30' W 002°05'710.1
2019-Jul-19 03:13N 50°27' W 002°15'310.3
2019-Jul-19 02:55N 50°26' W 002°19'510.4
2019-Jul-19 02:24N 50°25' W 002°27'1111.4
2019-Jul-19 01:26N 50°21' W 002°43'512.3
2019-Jul-19 01:01N 50°19' W 002°51'612.7
2019-Jul-19 00:30N 50°16' W 003°00'612.9
2019-Jul-19 00:00N 50°14' W 003°09'713.0
2019-Jul-18 23:30N 50°12' W 003°19'713.3
2019-Jul-18 23:00N 50°09' W 003°29'713.8
2019-Jul-18 22:30N 50°07' W 003°39'713.7
2019-Jul-18 22:00N 50°05' W 003°49'713.7
2019-Jul-18 21:31N 50°03' W 003°59'713.8
2019-Jul-18 21:00N 50°02' W 004°10'713.8
2019-Jul-18 20:30N 50°00' W 004°20'714.0
2019-Jul-18 20:00N 49°58' W 004°31'68 8.1
2019-Jul-18 11:35N 49°56' W 006°17'0 0.1
2019-Jul-18 11:30N 49°56' W 006°17'0 0.0
2019-Jul-18 11:00N 49°56' W 006°17'0 0.0
2019-Jul-18 10:30N 49°56' W 006°17'0 0.0
2019-Jul-18 10:00N 49°56' W 006°17'0 0.0
2019-Jul-18 09:30N 49°56' W 006°17'0 0.0
2019-Jul-18 09:00N 49°56' W 006°17'175 5.4
2019-Jul-17 00:37N 52°49' W 005°40'110.6
2019-Jul-17 00:30N 52°50' W 005°40'510.6
2019-Jul-17 00:00N 52°55' W 005°44'612.5
2019-Jul-16 23:30N 53°01' W 005°49'612.3
2019-Jul-16 23:00N 53°06' W 005°55'611.2
2019-Jul-16 22:30N 53°11' W 005°59'510.9
2019-Jul-16 22:00N 53°16' W 006°01'510.3
2019-Jul-16 21:29N 53°20' W 006°07'4 8.1
2019-Jul-16 21:00N 53°21' W 006°13'1 1.0
2019-Jul-16 20:29N 53°21' W 006°14'0 0.0
2019-Jul-16 19:59N 53°21' W 006°14'0 0.0
2019-Jul-16 19:29N 53°21' W 006°14'0 0.0
2019-Jul-16 18:56N 53°21' W 006°14'0 0.0
2019-Jul-16 18:29N 53°21' W 006°14'0 0.0
2019-Jul-16 17:59N 53°21' W 006°14'0 0.0
2019-Jul-16 17:29N 53°21' W 006°14'0 0.0
2019-Jul-16 16:59N 53°21' W 006°14'0 0.0
2019-Jul-16 16:29N 53°21' W 006°14'0 0.0
2019-Jul-16 15:59N 53°21' W 006°14'0 0.0
2019-Jul-16 15:29N 53°21' W 006°14'0 0.0
2019-Jul-16 14:53N 53°21' W 006°14'0 0.0
2019-Jul-16 14:29N 53°21' W 006°14'0 0.0
2019-Jul-16 13:59N 53°21' W 006°14'0 0.0
2019-Jul-16 13:26N 53°21' W 006°14'0 0.0
2019-Jul-16 12:59N 53°21' W 006°14'0 0.0
2019-Jul-16 12:29N 53°21' W 006°14'0 0.0
2019-Jul-16 11:32N 53°21' W 006°14'0 0.1
2019-Jul-16 11:26N 53°21' W 006°14'0 0.0
2019-Jul-16 10:59N 53°21' W 006°14'0 0.1
2019-Jul-16 10:29N 53°21' W 006°14'0 0.1
2019-Jul-16 09:59N 53°21' W 006°14'0 0.0
2019-Jul-16 09:29N 53°21' W 006°14'0 0.0
2019-Jul-16 08:59N 53°21' W 006°14'0 0.0
2019-Jul-16 08:29N 53°21' W 006°14'0 0.0
2019-Jul-16 07:59N 53°21' W 006°14'0 0.0
2019-Jul-16 07:29N 53°21' W 006°14'0 0.0
2019-Jul-16 06:59N 53°21' W 006°14'0 0.0
2019-Jul-16 06:29N 53°21' W 006°14'0 0.0
2019-Jul-16 05:59N 53°21' W 006°14'0 0.1
2019-Jul-16 05:30N 53°21' W 006°14'2 3.5
2019-Jul-16 05:00N 53°21' W 006°11'510.9
2019-Jul-16 04:30N 53°21' W 006°02'3 5.5
2019-Jul-16 03:58N 53°23' W 005°58'3 7.6
2019-Jul-16 03:30N 53°25' W 005°53'4 7.7
2019-Jul-16 02:59N 53°27' W 005°48'56 2.1
2019-Jul-15 00:10N 54°18' W 005°06'2 6.5
2019-Jul-14 23:47N 54°20' W 005°08'2 6.5
2019-Jul-14 23:29N 54°22' W 005°09'9 7.1
2019-Jul-14 22:15N 54°30' W 005°15'4 7.2
2019-Jul-14 21:42N 54°33' W 005°19'2 7.4
2019-Jul-14 21:27N 54°35' W 005°21'4 8.0
2019-Jul-14 21:00N 54°38' W 005°24'612.6
2019-Jul-14 20:29N 54°43' W 005°31'612.4
2019-Jul-14 19:59N 54°43' W 005°42'511.1
2019-Jul-14 19:30N 54°40' W 005°50'4 7.2
2019-Jul-14 18:59N 54°37' W 005°54'0 0.0
2019-Jul-14 18:22N 54°37' W 005°54'0 0.0
2019-Jul-14 17:59N 54°37' W 005°54'0 0.0
2019-Jul-14 17:29N 54°37' W 005°54'0 0.0
2019-Jul-14 16:59N 54°37' W 005°54'0 0.0
2019-Jul-14 16:29N 54°37' W 005°54'0 0.0
2019-Jul-14 15:59N 54°37' W 005°54'0 0.0
2019-Jul-14 15:29N 54°37' W 005°54'0 0.0
2019-Jul-14 14:59N 54°37' W 005°54'0 0.0
2019-Jul-14 14:29N 54°37' W 005°54'0 0.0
2019-Jul-14 13:59N 54°37' W 005°54'0 0.0
2019-Jul-14 13:29N 54°37' W 005°54'0 0.0
2019-Jul-14 12:59N 54°37' W 005°54'0 0.0
2019-Jul-14 12:29N 54°37' W 005°54'0 0.0
2019-Jul-14 11:59N 54°37' W 005°54'0 0.0
2019-Jul-14 11:29N 54°37' W 005°54'0 0.0
2019-Jul-14 10:59N 54°37' W 005°54'0 0.0
2019-Jul-14 10:29N 54°37' W 005°54'0 0.0
2019-Jul-14 09:59N 54°37' W 005°54'0 0.0
2019-Jul-14 09:29N 54°37' W 005°54'0 0.0
2019-Jul-14 08:59N 54°37' W 005°54'0 0.0
2019-Jul-14 08:29N 54°37' W 005°54'0 0.0
2019-Jul-14 07:59N 54°37' W 005°54'0 0.0
2019-Jul-14 07:29N 54°37' W 005°54'0 0.0
2019-Jul-14 06:59N 54°37' W 005°54'4 8.6
2019-Jul-14 06:30N 54°40' W 005°50'510.2
2019-Jul-14 06:00N 54°43' W 005°42'3 7.0
2019-Jul-14 05:30N 54°46' W 005°39'4 8.1
2019-Jul-14 05:00N 54°50' W 005°39'29 8.6
2019-Jul-14 01:39N 55°16' W 006°00'4 8.4
2019-Jul-14 01:13N 55°19' W 006°04'2 8.4
2019-Jul-14 00:59N 55°20' W 006°06'4 8.4
2019-Jul-14 00:30N 55°22' W 006°13'5 9.2
2019-Jul-14 00:00N 55°25' W 006°19'510.2
2019-Jul-13 23:30N 55°29' W 006°24'510.6
2019-Jul-13 23:00N 55°34' W 006°29'611.3
2019-Jul-13 22:30N 55°38' W 006°34'4 8.9
2019-Jul-13 22:00N 55°43' W 006°35'511.0
2019-Jul-13 21:30N 55°48' W 006°33'4912.2
2019-Jul-13 17:28N 56°25' W 005°35'3 1.5
2019-Jul-13 15:12N 56°25' W 005°29'0 0.0
2019-Jul-13 14:45N 56°25' W 005°29'0 0.0
2019-Jul-13 13:51N 56°25' W 005°29'0 0.0
2019-Jul-13 13:27N 56°25' W 005°29'0 0.0
2019-Jul-13 12:51N 56°25' W 005°29'4 0.7
2019-Jul-13 06:41N 56°27' W 005°36'37 8.3
2019-Jul-13 02:17N 56°60' W 006°05'5 9.1
2019-Jul-13 01:43N 57°03' W 006°13'3 9.2
2019-Jul-13 01:26N 57°05' W 006°16'124 4.4
2019-Jul-11 21:18N 58°49' W 004°09'3 9.5
2019-Jul-11 21:00N 58°50' W 004°03'5 9.3
2019-Jul-11 20:30N 58°51' W 003°55'5 9.0
2019-Jul-11 20:00N 58°52' W 003°46'4 8.8
2019-Jul-11 19:30N 58°54' W 003°38'5 9.2
2019-Jul-11 19:00N 58°55' W 003°30'5 9.3
2019-Jul-11 18:30N 58°57' W 003°21'2 4.2
2019-Jul-11 18:00N 58°58' W 003°18'0 0.0
2019-Jul-11 17:31N 58°58' W 003°18'0 0.0
2019-Jul-11 16:57N 58°58' W 003°18'0 0.0
2019-Jul-11 16:27N 58°58' W 003°18'0 0.0
2019-Jul-11 15:57N 58°58' W 003°18'0 0.0
2019-Jul-11 15:27N 58°58' W 003°18'0 0.0
2019-Jul-11 14:57N 58°58' W 003°18'0 0.0
2019-Jul-11 14:30N 58°58' W 003°18'0 0.0
2019-Jul-11 14:00N 58°58' W 003°18'0 0.0
2019-Jul-11 13:27N 58°58' W 003°18'0 0.0
2019-Jul-11 12:45N 58°58' W 003°18'0 0.0
2019-Jul-11 12:27N 58°58' W 003°18'0 0.0
2019-Jul-11 12:00N 58°58' W 003°18'0 0.0
2019-Jul-11 11:30N 58°58' W 003°18'0 0.0
2019-Jul-11 11:00N 58°58' W 003°18'0 0.0
2019-Jul-11 10:30N 58°58' W 003°18'0 0.0
2019-Jul-11 10:00N 58°58' W 003°18'0 0.0
2019-Jul-11 09:27N 58°58' W 003°18'0 0.0
2019-Jul-11 09:00N 58°58' W 003°18'0 0.0
2019-Jul-11 08:30N 58°58' W 003°18'0 0.0
2019-Jul-11 08:00N 58°58' W 003°18'0 0.0
2019-Jul-11 07:27N 58°58' W 003°18'0 0.0
2019-Jul-11 06:51N 58°58' W 003°18'0 0.0
2019-Jul-11 06:30N 58°58' W 003°18'3 5.1
2019-Jul-11 06:01N 58°56' W 003°15'612.9
2019-Jul-11 05:30N 58°52' W 003°04'713.6
2019-Jul-11 05:00N 58°46' W 003°01'5 9.2
2019-Jul-11 04:30N 58°41' W 003°00'4 7.8
2019-Jul-11 04:00N 58°38' W 002°56'5 9.3
2019-Jul-11 03:30N 58°34' W 002°50'5 9.7
2019-Jul-11 03:00N 58°31' W 002°45'510.2
2019-Jul-11 02:30N 58°27' W 002°39'712.9
2019-Jul-11 01:59N 58°21' W 002°31'4813.2
2019-Jul-10 22:19N 57°40' W 001°42'412.6
2019-Jul-10 22:00N 57°36' W 001°41'612.2
2019-Jul-10 21:30N 57°30' W 001°41'611.6
2019-Jul-10 21:00N 57°25' W 001°44'612.1
2019-Jul-10 20:30N 57°20' W 001°50'611.7
2019-Jul-10 20:00N 57°14' W 001°55'611.8
2019-Jul-10 19:30N 57°09' W 002°01'2 4.9
2019-Jul-10 19:00N 57°09' W 002°05'0 0.2
2019-Jul-10 18:30N 57°09' W 002°05'0 0.0
2019-Jul-10 18:00N 57°09' W 002°05'0 0.0
2019-Jul-10 17:29N 57°09' W 002°05'0 0.0
2019-Jul-10 16:59N 57°09' W 002°05'0 0.0
2019-Jul-10 16:29N 57°09' W 002°05'0 0.0
2019-Jul-10 15:59N 57°09' W 002°05'0 0.0
2019-Jul-10 15:29N 57°09' W 002°05'0 0.0
2019-Jul-10 14:59N 57°09' W 002°05'0 0.0
2019-Jul-10 14:29N 57°09' W 002°05'0 0.0
2019-Jul-10 13:59N 57°09' W 002°05'0 0.0
2019-Jul-10 13:26N 57°09' W 002°05'0 0.0
2019-Jul-10 12:59N 57°09' W 002°05'0 0.0
2019-Jul-10 12:26N 57°09' W 002°05'0 0.0
2019-Jul-10 11:59N 57°09' W 002°05'0 0.0
2019-Jul-10 11:29N 57°09' W 002°05'0 0.0
2019-Jul-10 10:59N 57°09' W 002°05'0 0.0
2019-Jul-10 10:29N 57°09' W 002°05'0 0.0
2019-Jul-10 09:59N 57°09' W 002°05'0 0.0
2019-Jul-10 09:29N 57°09' W 002°05'0 0.0
2019-Jul-10 08:59N 57°09' W 002°05'0 0.0
2019-Jul-10 08:26N 57°09' W 002°05'0 0.0
2019-Jul-10 07:59N 57°09' W 002°05'0 0.0
2019-Jul-10 07:29N 57°09' W 002°05'0 0.0
2019-Jul-10 06:59N 57°09' W 002°05'1 1.2
2019-Jul-10 06:31N 57°08' W 002°04'4 7.1
2019-Jul-10 06:00N 57°09' W 001°58'4 7.6
2019-Jul-10 05:30N 57°06' W 002°00'4 8.3
2019-Jul-10 05:00N 57°02' W 002°02'  
Track history (hours):
 
Tides and Currents Weather Stations Pressure Air Temp Water Temp Dewpoint Dewpoint Depression Visibility Wind Speed Wind Dir Waves Ship Positions

Orion II

Last reported at 2019-Jul-20 01:56 UTC. Time now 2019-Jul-20 13:30 UTC.
Position N 50°01' W 004°27'.

Length 88 m; draft 4.2 m.

Type: Passenger vessel. MMSI: 249556000.

Date/timePositionNaut miles runAvg speedWind from/ knotsBaromVisibWave heightAir tempDewpointWater temp
2019-Jul-20 01:56N 50°01' W 004°27'613.0
2019-Jul-20 01:29N 50°02' W 004°18'612.7
2019-Jul-20 01:00N 50°04' W 004°09'612.8
2019-Jul-20 00:30N 50°05' W 003°59'612.9
2019-Jul-20 00:00N 50°07' W 003°50'612.2
2019-Jul-19 23:30N 50°09' W 003°40'611.6
2019-Jul-19 23:00N 50°10' W 003°32'611.7
2019-Jul-19 22:30N 50°12' W 003°23'611.4
2019-Jul-19 22:00N 50°15' W 003°15'611.2
2019-Jul-19 21:30N 50°17' W 003°07'510.8
2019-Jul-19 21:00N 50°18' W 002°59'510.7
2019-Jul-19 20:30N 50°20' W 002°51'510.9
2019-Jul-19 20:00N 50°22' W 002°43'611.2
2019-Jul-19 19:30N 50°24' W 002°35'611.3
2019-Jul-19 19:00N 50°26' W 002°26'1211.5
2019-Jul-19 17:58N 50°30' W 002°09'612.5
2019-Jul-19 17:30N 50°32' W 002°01'611.6
2019-Jul-19 17:00N 50°36' W 001°54'5 9.3
2019-Jul-19 16:30N 50°41' W 001°57'2 4.5
2019-Jul-19 16:00N 50°42' W 001°59'0 0.0
2019-Jul-19 15:30N 50°42' W 001°59'0 0.0
2019-Jul-19 15:00N 50°42' W 001°59'0 0.0
2019-Jul-19 14:30N 50°42' W 001°59'0 0.0
2019-Jul-19 14:00N 50°42' W 001°59'0 0.0
2019-Jul-19 13:27N 50°42' W 001°59'0 0.0
2019-Jul-19 13:01N 50°42' W 001°59'0 0.0
2019-Jul-19 12:30N 50°42' W 001°59'0 0.0
2019-Jul-19 12:00N 50°42' W 001°59'0 0.0
2019-Jul-19 11:30N 50°42' W 001°59'0 0.0
2019-Jul-19 11:00N 50°42' W 001°59'0 0.0
2019-Jul-19 10:30N 50°42' W 001°59'0 0.0
2019-Jul-19 10:01N 50°42' W 001°59'0 0.0
2019-Jul-19 09:30N 50°42' W 001°59'0 0.0
2019-Jul-19 09:00N 50°42' W 001°59'0 0.0
2019-Jul-19 08:30N 50°42' W 001°59'0 0.0
2019-Jul-19 08:00N 50°42' W 001°59'0 0.0
2019-Jul-19 07:31N 50°42' W 001°59'0 0.0
2019-Jul-19 07:00N 50°42' W 001°59'0 0.0
2019-Jul-19 06:30N 50°42' W 001°59'0 0.2
2019-Jul-19 06:01N 50°42' W 001°59'4 7.5
2019-Jul-19 05:31N 50°39' W 001°55'3 6.5
2019-Jul-19 05:00N 50°36' W 001°54'5 8.5
2019-Jul-19 04:28N 50°32' W 001°56'610.0
2019-Jul-19 03:52N 50°30' W 002°05'710.1
2019-Jul-19 03:13N 50°27' W 002°15'310.3
2019-Jul-19 02:55N 50°26' W 002°19'510.4
2019-Jul-19 02:24N 50°25' W 002°27'1111.4
2019-Jul-19 01:26N 50°21' W 002°43'512.3
2019-Jul-19 01:01N 50°19' W 002°51'612.7
2019-Jul-19 00:30N 50°16' W 003°00'612.9
2019-Jul-19 00:00N 50°14' W 003°09'713.0
2019-Jul-18 23:30N 50°12' W 003°19'713.3
2019-Jul-18 23:00N 50°09' W 003°29'713.8
2019-Jul-18 22:30N 50°07' W 003°39'713.7
2019-Jul-18 22:00N 50°05' W 003°49'713.7
2019-Jul-18 21:31N 50°03' W 003°59'713.8
2019-Jul-18 21:00N 50°02' W 004°10'713.8
2019-Jul-18 20:30N 50°00' W 004°20'714.0
2019-Jul-18 20:00N 49°58' W 004°31'68 8.1
2019-Jul-18 11:35N 49°56' W 006°17'0 0.1
2019-Jul-18 11:30N 49°56' W 006°17'0 0.0
2019-Jul-18 11:00N 49°56' W 006°17'0 0.0
2019-Jul-18 10:30N 49°56' W 006°17'0 0.0
2019-Jul-18 10:00N 49°56' W 006°17'0 0.0
2019-Jul-18 09:30N 49°56' W 006°17'0 0.0
2019-Jul-18 09:00N 49°56' W 006°17'175 5.4
2019-Jul-17 00:37N 52°49' W 005°40'110.6
2019-Jul-17 00:30N 52°50' W 005°40'510.6
2019-Jul-17 00:00N 52°55' W 005°44'612.5
2019-Jul-16 23:30N 53°01' W 005°49'612.3
2019-Jul-16 23:00N 53°06' W 005°55'611.2
2019-Jul-16 22:30N 53°11' W 005°59'510.9
2019-Jul-16 22:00N 53°16' W 006°01'510.3
2019-Jul-16 21:29N 53°20' W 006°07'4 8.1
2019-Jul-16 21:00N 53°21' W 006°13'1 1.0
2019-Jul-16 20:29N 53°21' W 006°14'0 0.0
2019-Jul-16 19:59N 53°21' W 006°14'0 0.0
2019-Jul-16 19:29N 53°21' W 006°14'0 0.0
2019-Jul-16 18:56N 53°21' W 006°14'0 0.0
2019-Jul-16 18:29N 53°21' W 006°14'0 0.0
2019-Jul-16 17:59N 53°21' W 006°14'0 0.0
2019-Jul-16 17:29N 53°21' W 006°14'0 0.0
2019-Jul-16 16:59N 53°21' W 006°14'0 0.0
2019-Jul-16 16:29N 53°21' W 006°14'0 0.0
2019-Jul-16 15:59N 53°21' W 006°14'0 0.0
2019-Jul-16 15:29N 53°21' W 006°14'0 0.0
2019-Jul-16 14:53N 53°21' W 006°14'0 0.0
2019-Jul-16 14:29N 53°21' W 006°14'0 0.0
2019-Jul-16 13:59N 53°21' W 006°14'0 0.0
2019-Jul-16 13:26N 53°21' W 006°14'0 0.0
2019-Jul-16 12:59N 53°21' W 006°14'0 0.0
2019-Jul-16 12:29N 53°21' W 006°14'0 0.0
2019-Jul-16 11:32N 53°21' W 006°14'0 0.1
2019-Jul-16 11:26N 53°21' W 006°14'0 0.0
2019-Jul-16 10:59N 53°21' W 006°14'0 0.1
2019-Jul-16 10:29N 53°21' W 006°14'0 0.1
2019-Jul-16 09:59N 53°21' W 006°14'0 0.0
2019-Jul-16 09:29N 53°21' W 006°14'0 0.0
2019-Jul-16 08:59N 53°21' W 006°14'0 0.0
2019-Jul-16 08:29N 53°21' W 006°14'0 0.0
2019-Jul-16 07:59N 53°21' W 006°14'0 0.0
2019-Jul-16 07:29N 53°21' W 006°14'0 0.0
2019-Jul-16 06:59N 53°21' W 006°14'0 0.0
2019-Jul-16 06:29N 53°21' W 006°14'0 0.0
2019-Jul-16 05:59N 53°21' W 006°14'0 0.1
2019-Jul-16 05:30N 53°21' W 006°14'2 3.5
2019-Jul-16 05:00N 53°21' W 006°11'510.9
2019-Jul-16 04:30N 53°21' W 006°02'3 5.5
2019-Jul-16 03:58N 53°23' W 005°58'3 7.6
2019-Jul-16 03:30N 53°25' W 005°53'4 7.7
2019-Jul-16 02:59N 53°27' W 005°48'56 2.1
2019-Jul-15 00:10N 54°18' W 005°06'2 6.5
2019-Jul-14 23:47N 54°20' W 005°08'2 6.5
2019-Jul-14 23:29N 54°22' W 005°09'9 7.1
2019-Jul-14 22:15N 54°30' W 005°15'4 7.2
2019-Jul-14 21:42N 54°33' W 005°19'2 7.4
2019-Jul-14 21:27N 54°35' W 005°21'4 8.0
2019-Jul-14 21:00N 54°38' W 005°24'612.6
2019-Jul-14 20:29N 54°43' W 005°31'612.4
2019-Jul-14 19:59N 54°43' W 005°42'511.1
2019-Jul-14 19:30N 54°40' W 005°50'4 7.2
2019-Jul-14 18:59N 54°37' W 005°54'0 0.0
2019-Jul-14 18:22N 54°37' W 005°54'0 0.0
2019-Jul-14 17:59N 54°37' W 005°54'0 0.0
2019-Jul-14 17:29N 54°37' W 005°54'0 0.0
2019-Jul-14 16:59N 54°37' W 005°54'0 0.0
2019-Jul-14 16:29N 54°37' W 005°54'0 0.0
2019-Jul-14 15:59N 54°37' W 005°54'0 0.0
2019-Jul-14 15:29N 54°37' W 005°54'0 0.0
2019-Jul-14 14:59N 54°37' W 005°54'0 0.0
2019-Jul-14 14:29N 54°37' W 005°54'0 0.0
2019-Jul-14 13:59N 54°37' W 005°54'0 0.0
2019-Jul-14 13:29N 54°37' W 005°54'0 0.0
2019-Jul-14 12:59N 54°37' W 005°54'0 0.0
2019-Jul-14 12:29N 54°37' W 005°54'0 0.0
2019-Jul-14 11:59N 54°37' W 005°54'0 0.0
2019-Jul-14 11:29N 54°37' W 005°54'0 0.0
2019-Jul-14 10:59N 54°37' W 005°54'0 0.0
2019-Jul-14 10:29N 54°37' W 005°54'0 0.0
2019-Jul-14 09:59N 54°37' W 005°54'0 0.0
2019-Jul-14 09:29N 54°37' W 005°54'0 0.0
2019-Jul-14 08:59N 54°37' W 005°54'0 0.0
2019-Jul-14 08:29N 54°37' W 005°54'0 0.0
2019-Jul-14 07:59N 54°37' W 005°54'0 0.0
2019-Jul-14 07:29N 54°37' W 005°54'0 0.0
2019-Jul-14 06:59N 54°37' W 005°54'4 8.6
2019-Jul-14 06:30N 54°40' W 005°50'510.2
2019-Jul-14 06:00N 54°43' W 005°42'3 7.0
2019-Jul-14 05:30N 54°46' W 005°39'4 8.1
2019-Jul-14 05:00N 54°50' W 005°39'29 8.6
2019-Jul-14 01:39N 55°16' W 006°00'4 8.4
2019-Jul-14 01:13N 55°19' W 006°04'2 8.4
2019-Jul-14 00:59N 55°20' W 006°06'4 8.4
2019-Jul-14 00:30N 55°22' W 006°13'5 9.2
2019-Jul-14 00:00N 55°25' W 006°19'510.2
2019-Jul-13 23:30N 55°29' W 006°24'510.6
2019-Jul-13 23:00N 55°34' W 006°29'611.3
2019-Jul-13 22:30N 55°38' W 006°34'4 8.9
2019-Jul-13 22:00N 55°43' W 006°35'511.0
2019-Jul-13 21:30N 55°48' W 006°33'4912.2
2019-Jul-13 17:28N 56°25' W 005°35'3 1.5
2019-Jul-13 15:12N 56°25' W 005°29'0 0.0
2019-Jul-13 14:45N 56°25' W 005°29'0 0.0
2019-Jul-13 13:51N 56°25' W 005°29'0 0.0
2019-Jul-13 13:27N 56°25' W 005°29'0 0.0
2019-Jul-13 12:51N 56°25' W 005°29'4 0.7
2019-Jul-13 06:41N 56°27' W 005°36'37 8.3
2019-Jul-13 02:17N 56°60' W 006°05'5 9.1
2019-Jul-13 01:43N 57°03' W 006°13'3 9.2
2019-Jul-13 01:26N 57°05' W 006°16'124 4.4
2019-Jul-11 21:18N 58°49' W 004°09'3 9.5
2019-Jul-11 21:00N 58°50' W 004°03'5 9.3
2019-Jul-11 20:30N 58°51' W 003°55'5 9.0
2019-Jul-11 20:00N 58°52' W 003°46'4 8.8
2019-Jul-11 19:30N 58°54' W 003°38'5 9.2
2019-Jul-11 19:00N 58°55' W 003°30'5 9.3
2019-Jul-11 18:30N 58°57' W 003°21'2 4.2
2019-Jul-11 18:00N 58°58' W 003°18'0 0.0
2019-Jul-11 17:31N 58°58' W 003°18'0 0.0
2019-Jul-11 16:57N 58°58' W 003°18'0 0.0
2019-Jul-11 16:27N 58°58' W 003°18'0 0.0
2019-Jul-11 15:57N 58°58' W 003°18'0 0.0
2019-Jul-11 15:27N 58°58' W 003°18'0 0.0
2019-Jul-11 14:57N 58°58' W 003°18'0 0.0
2019-Jul-11 14:30N 58°58' W 003°18'0 0.0
2019-Jul-11 14:00N 58°58' W 003°18'0 0.0
2019-Jul-11 13:27N 58°58' W 003°18'0 0.0
2019-Jul-11 12:45N 58°58' W 003°18'0 0.0
2019-Jul-11 12:27N 58°58' W 003°18'0 0.0
2019-Jul-11 12:00N 58°58' W 003°18'0 0.0
2019-Jul-11 11:30N 58°58' W 003°18'0 0.0
2019-Jul-11 11:00N 58°58' W 003°18'0 0.0
2019-Jul-11 10:30N 58°58' W 003°18'0 0.0
2019-Jul-11 10:00N 58°58' W 003°18'0 0.0
2019-Jul-11 09:27N 58°58' W 003°18'0 0.0
2019-Jul-11 09:00N 58°58' W 003°18'0 0.0
2019-Jul-11 08:30N 58°58' W 003°18'0 0.0
2019-Jul-11 08:00N 58°58' W 003°18'0 0.0
2019-Jul-11 07:27N 58°58' W 003°18'0 0.0
2019-Jul-11 06:51N 58°58' W 003°18'0 0.0
2019-Jul-11 06:30N 58°58' W 003°18'3 5.1
2019-Jul-11 06:01N 58°56' W 003°15'612.9
2019-Jul-11 05:30N 58°52' W 003°04'713.6
2019-Jul-11 05:00N 58°46' W 003°01'5 9.2
2019-Jul-11 04:30N 58°41' W 003°00'4 7.8
2019-Jul-11 04:00N 58°38' W 002°56'5 9.3
2019-Jul-11 03:30N 58°34' W 002°50'5 9.7
2019-Jul-11 03:00N 58°31' W 002°45'510.2
2019-Jul-11 02:30N 58°27' W 002°39'712.9
2019-Jul-11 01:59N 58°21' W 002°31'4813.2
2019-Jul-10 22:19N 57°40' W 001°42'412.6
2019-Jul-10 22:00N 57°36' W 001°41'612.2
2019-Jul-10 21:30N 57°30' W 001°41'611.6
2019-Jul-10 21:00N 57°25' W 001°44'612.1
2019-Jul-10 20:30N 57°20' W 001°50'611.7
2019-Jul-10 20:00N 57°14' W 001°55'611.8
2019-Jul-10 19:30N 57°09' W 002°01'2 4.9
2019-Jul-10 19:00N 57°09' W 002°05'0 0.2
2019-Jul-10 18:30N 57°09' W 002°05'0 0.0
2019-Jul-10 18:00N 57°09' W 002°05'0 0.0
2019-Jul-10 17:29N 57°09' W 002°05'0 0.0
2019-Jul-10 16:59N 57°09' W 002°05'0 0.0
2019-Jul-10 16:29N 57°09' W 002°05'0 0.0
2019-Jul-10 15:59N 57°09' W 002°05'0 0.0
2019-Jul-10 15:29N 57°09' W 002°05'0 0.0
2019-Jul-10 14:59N 57°09' W 002°05'0 0.0
2019-Jul-10 14:29N 57°09' W 002°05'0 0.0
2019-Jul-10 13:59N 57°09' W 002°05'0 0.0
2019-Jul-10 13:26N 57°09' W 002°05'0 0.0
2019-Jul-10 12:59N 57°09' W 002°05'0 0.0
2019-Jul-10 12:26N 57°09' W 002°05'0 0.0
2019-Jul-10 11:59N 57°09' W 002°05'0 0.0
2019-Jul-10 11:29N 57°09' W 002°05'0 0.0
2019-Jul-10 10:59N 57°09' W 002°05'0 0.0
2019-Jul-10 10:29N 57°09' W 002°05'0 0.0
2019-Jul-10 09:59N 57°09' W 002°05'0 0.0
2019-Jul-10 09:29N 57°09' W 002°05'0 0.0
2019-Jul-10 08:59N 57°09' W 002°05'0 0.0
2019-Jul-10 08:26N 57°09' W 002°05'0 0.0
2019-Jul-10 07:59N 57°09' W 002°05'0 0.0
2019-Jul-10 07:29N 57°09' W 002°05'0 0.0
2019-Jul-10 06:59N 57°09' W 002°05'1 1.2
2019-Jul-10 06:31N 57°08' W 002°04'4 7.1
2019-Jul-10 06:00N 57°09' W 001°58'4 7.6
2019-Jul-10 05:30N 57°06' W 002°00'4 8.3
2019-Jul-10 05:00N 57°02' W 002°02'  

Dump ship's entire track history